Time;durP1;ratioP1;P1;durP2;ratioP2;P2;SDS_P1;SDS_P2;PMS_P1;PMS_P2;Temp;Humidity;BMP_temperature;BMP_pressure;BME280_temperature;BME280_humidity;BME280_pressure;Samples;Min_cycle;Max_cycle;Signal;HPM_P1;HPM_P2
2022/01/27 00:01:32;;;;;;;48.45;22.77;;;4.40;99.90;;;;;;5012750;28;20033;-46
2022/01/27 00:06:26;;;;;;;47.65;25.35;;;4.40;99.90;;;;;;5012599;28;20376;-46
2022/01/27 00:08:58;;;;;;;48.70;26.48;;;4.40;99.90;;;;;;5012609;28;20101;-46
2022/01/27 00:11:23;;;;;;;54.25;28.10;;;4.40;99.90;;;;;;5012755;28;20033;-46
2022/01/27 00:13:58;;;;;;;53.95;26.20;;;4.40;99.90;;;;;;5013032;28;20026;-46
2022/01/27 00:16:30;;;;;;;47.15;24.40;;;4.40;99.90;;;;;;5012452;28;20034;-46
2022/01/27 00:18:56;;;;;;;41.37;19.60;;;4.40;99.90;;;;;;5012648;28;20048;-46
2022/01/27 00:21:24;;;;;;;53.20;28.20;;;4.50;99.90;;;;;;5012607;28;20054;-46
2022/01/27 00:23:51;;;;;;;43.28;21.95;;;4.50;99.90;;;;;;5012617;28;20022;-46
2022/01/27 00:26:18;;;;;;;46.63;22.98;;;4.50;99.90;;;;;;5012613;28;20030;-46
2022/01/27 00:28:46;;;;;;;50.95;24.88;;;4.50;99.90;;;;;;5012442;28;20046;-46
2022/01/27 00:31:12;;;;;;;53.00;26.77;;;4.40;99.90;;;;;;5011159;28;20026;-46
2022/01/27 00:33:37;;;;;;;51.33;26.73;;;4.40;99.90;;;;;;5010874;28;20475;-46
2022/01/27 00:36:04;;;;;;;49.65;24.27;;;4.40;99.90;;;;;;5012712;28;20112;-46
2022/01/27 00:38:30;;;;;;;53.33;26.20;;;4.50;99.90;;;;;;5011652;28;20443;-46
2022/01/27 00:40:56;;;;;;;50.95;25.73;;;4.50;99.90;;;;;;5012036;28;20029;-46
2022/01/27 00:43:22;;;;;;;54.67;26.52;;;4.50;99.90;;;;;;5012248;28;20037;-46
2022/01/27 00:45:48;;;;;;;55.17;25.63;;;4.40;99.90;;;;;;5012228;28;20028;-46
2022/01/27 00:48:16;;;;;;;52.80;26.27;;;4.50;99.90;;;;;;5011875;28;20523;-46
2022/01/27 00:50:43;;;;;;;56.33;27.40;;;4.50;99.90;;;;;;5012572;28;20018;-46
2022/01/27 00:53:30;;;;;;;51.03;26.25;;;4.40;99.90;;;;;;5010941;28;20112;-46
2022/01/27 00:56:00;;;;;;;50.63;25.25;;;4.40;99.90;;;;;;5012054;28;20030;-45
2022/01/27 01:01:14;;;;;;;54.22;26.48;;;4.40;99.90;;;;;;5011784;28;20056;-46
2022/01/27 01:03:43;;;;;;;49.80;23.77;;;4.50;99.90;;;;;;5012103;28;20093;-46
2022/01/27 01:14:44;;;;;;;56.45;26.70;;;4.30;99.90;;;;;;5011457;28;20033;-46
2022/01/27 01:20:00;;;;;;;48.03;23.27;;;4.30;99.90;;;;;;5011888;28;20037;-46
2022/01/27 01:30:45;;;;;;;52.85;25.98;;;4.30;99.90;;;;;;5011620;28;20037;-46
2022/01/27 01:33:14;;;;;;;48.38;22.40;;;4.30;99.90;;;;;;5011561;28;20025;-46
2022/01/27 01:35:50;;;;;;;57.80;28.10;;;4.30;99.90;;;;;;5011308;28;20021;-46
2022/01/27 01:38:21;;;;;;;49.08;23.55;;;4.30;99.90;;;;;;5009893;28;20041;-46
2022/01/27 01:40:49;;;;;;;54.78;27.48;;;4.30;99.90;;;;;;5010977;28;20022;-46
2022/01/27 01:43:15;;;;;;;51.63;25.33;;;4.30;99.90;;;;;;5010849;28;20068;-46
2022/01/27 01:45:41;;;;;;;42.70;20.27;;;4.30;99.90;;;;;;5011132;28;20400;-46
2022/01/27 01:48:06;;;;;;;58.05;27.85;;;4.30;99.90;;;;;;5010261;28;20028;-46
2022/01/27 01:50:32;;;;;;;52.63;26.02;;;4.30;99.90;;;;;;5010417;28;20510;-46
2022/01/27 01:52:58;;;;;;;58.90;26.33;;;4.30;99.90;;;;;;5010842;28;20026;-46
2022/01/27 01:55:24;;;;;;;52.42;26.17;;;4.30;99.90;;;;;;5009241;28;20117;-46
2022/01/27 01:57:51;;;;;;;54.22;26.13;;;4.40;99.90;;;;;;5010942;28;20084;-46
2022/01/27 02:00:18;;;;;;;54.08;26.42;;;4.40;99.90;;;;;;5010879;28;20117;-46
2022/01/27 02:02:44;;;;;;;53.85;26.50;;;4.30;99.90;;;;;;5010475;28;20034;-46
2022/01/27 02:05:11;;;;;;;52.08;26.55;;;4.30;99.90;;;;;;5010482;28;20064;-46
2022/01/27 02:07:58;;;;;;;52.40;26.90;;;4.30;99.90;;;;;;5010719;28;20029;-46
2022/01/27 02:18:25;;;;;;;52.38;25.60;;;4.30;99.90;;;;;;5010411;28;20612;-46
2022/01/27 02:20:51;;;;;;;53.50;24.02;;;4.30;99.90;;;;;;5008767;28;20129;-46
2022/01/27 02:23:17;;;;;;;54.47;26.13;;;4.30;99.90;;;;;;5010475;28;20072;-46
2022/01/27 02:25:43;;;;;;;52.22;26.33;;;4.30;99.90;;;;;;5010639;28;20029;-45
2022/01/27 02:28:08;;;;;;;53.38;25.48;;;4.20;99.90;;;;;;5010719;28;20054;-46
2022/01/27 02:30:34;;;;;;;47.28;24.02;;;4.20;99.90;;;;;;5008834;28;20229;-46
2022/01/27 02:32:59;;;;;;;55.60;27.50;;;4.20;99.90;;;;;;5009258;28;20087;-46
2022/01/27 02:35:31;;;;;;;51.90;24.15;;;4.20;99.90;;;;;;5010165;28;20046;-46
2022/01/27 02:37:57;;;;;;;48.53;21.73;;;4.20;99.90;;;;;;5008646;28;20026;-46
2022/01/27 02:40:34;;;;;;;54.92;25.80;;;4.20;99.90;;;;;;5009933;28;20088;-44
2022/01/27 02:43:02;;;;;;;60.38;28.10;;;4.20;99.90;;;;;;5008768;28;20030;-47
2022/01/27 02:45:44;;;;;;;53.33;25.88;;;4.30;99.90;;;;;;5010290;28;20014;-45
2022/01/27 02:48:15;;;;;;;55.78;25.30;;;4.30;99.90;;;;;;5010136;28;20037;-45
2022/01/27 02:50:42;;;;;;;57.85;25.45;;;4.30;99.90;;;;;;5009927;28;20545;-45
2022/01/27 02:53:08;;;;;;;53.33;21.42;;;4.30;99.90;;;;;;5010623;28;20539;-45
2022/01/27 02:55:33;;;;;;;61.22;27.08;;;4.30;99.90;;;;;;5013113;28;20105;-46
2022/01/27 02:57:59;;;;;;;55.30;22.52;;;4.30;99.90;;;;;;5014644;28;20034;-46
2022/01/27 03:00:25;;;;;;;56.13;26.70;;;4.20;99.90;;;;;;5013981;28;20018;-46
2022/01/27 03:02:51;;;;;;;61.45;27.50;;;4.20;99.90;;;;;;5013824;28;20100;-46
2022/01/27 03:05:18;;;;;;;49.80;23.13;;;4.20;99.90;;;;;;5014074;28;20040;-46
2022/01/27 03:07:47;;;;;;;60.70;26.15;;;4.20;99.90;;;;;;5014023;28;20049;-46
2022/01/27 03:10:17;;;;;;;53.17;21.52;;;4.20;99.90;;;;;;5012294;28;20025;-46
2022/01/27 03:12:43;;;;;;;59.78;27.45;;;4.20;99.90;;;;;;5013737;28;20080;-46
2022/01/27 03:15:11;;;;;;;57.38;26.83;;;4.10;99.90;;;;;;5014086;28;20029;-46
2022/01/27 03:17:37;;;;;;;57.28;25.42;;;4.10;99.90;;;;;;5012091;28;20025;-46
2022/01/27 03:20:03;;;;;;;58.20;26.73;;;4.00;99.90;;;;;;5013463;28;20495;-46
2022/01/27 03:22:28;;;;;;;59.88;27.58;;;4.10;99.90;;;;;;5013095;28;20109;-46
2022/01/27 03:24:54;;;;;;;58.17;27.88;;;4.10;99.90;;;;;;5013254;28;20042;-46
2022/01/27 03:27:24;;;;;;;63.53;27.60;;;4.10;99.90;;;;;;5013383;28;20033;-46
2022/01/27 03:29:49;;;;;;;58.58;25.73;;;4.20;99.90;;;;;;5014010;28;20384;-46
2022/01/27 03:32:15;;;;;;;60.42;26.35;;;4.20;99.90;;;;;;5012930;28;20030;-46
2022/01/27 03:34:41;;;;;;;57.50;23.70;;;4.20;99.90;;;;;;5011852;28;20018;-46
2022/01/27 03:37:07;;;;;;;62.25;25.38;;;4.30;99.90;;;;;;5013248;28;20487;-46
2022/01/27 03:39:36;;;;;;;59.35;28.50;;;4.30;99.90;;;;;;5012966;28;20030;-46
2022/01/27 03:42:02;;;;;;;61.80;27.70;;;4.30;99.90;;;;;;5013270;28;20077;-46
2022/01/27 03:44:29;;;;;;;60.13;28.63;;;4.30;99.90;;;;;;5013466;28;20471;-46
2022/01/27 03:46:55;;;;;;;52.70;25.48;;;4.40;99.90;;;;;;5011761;28;20026;-46
2022/01/27 03:49:21;;;;;;;61.28;30.48;;;4.40;99.90;;;;;;5013106;28;20026;-46
2022/01/27 03:51:47;;;;;;;56.72;26.45;;;4.40;99.90;;;;;;5013273;28;20021;-46
2022/01/27 03:54:13;;;;;;;59.85;27.58;;;4.40;99.90;;;;;;5013210;28;20115;-46
2022/01/27 03:56:39;;;;;;;57.35;26.60;;;4.40;99.90;;;;;;5013578;28;20026;-46
2022/01/27 03:59:05;;;;;;;62.08;25.90;;;4.30;99.90;;;;;;5012946;28;20030;-46
2022/01/27 04:01:31;;;;;;;62.47;29.17;;;4.30;99.90;;;;;;5012630;28;20510;-46
2022/01/27 04:03:59;;;;;;;65.05;30.85;;;4.20;99.90;;;;;;5013188;28;20369;-45
2022/01/27 04:06:33;;;;;;;66.90;31.15;;;4.20;99.90;;;;;;5011470;28;20079;-46
2022/01/27 04:09:00;;;;;;;59.08;28.55;;;4.10;99.90;;;;;;5012824;28;20022;-45
2022/01/27 04:11:26;;;;;;;70.05;29.83;;;4.10;99.90;;;;;;5012229;28;20048;-46
2022/01/27 04:13:51;;;;;;;70.20;30.48;;;4.10;99.90;;;;;;5012872;28;20109;-45
2022/01/27 04:16:17;;;;;;;74.28;33.60;;;4.10;99.90;;;;;;5012548;28;20105;-45
2022/01/27 04:18:43;;;;;;;70.90;33.75;;;4.10;99.90;;;;;;5012575;28;20058;-46
2022/01/27 04:21:08;;;;;;;69.45;31.20;;;4.10;99.90;;;;;;5012476;28;20037;-45
2022/01/27 04:23:34;;;;;;;70.57;31.63;;;4.10;99.90;;;;;;5012516;28;20022;-46
2022/01/27 04:26:00;;;;;;;73.32;32.40;;;4.10;99.90;;;;;;5012366;28;20026;-45
2022/01/27 04:28:30;;;;;;;72.65;32.70;;;4.00;99.90;;;;;;5012288;28;20125;-46
2022/01/27 04:30:58;;;;;;;68.43;33.35;;;4.00;99.90;;;;;;5012099;28;20022;-45
2022/01/27 04:33:27;;;;;;;72.57;31.27;;;4.00;99.90;;;;;;5012759;28;20105;-45
2022/01/27 04:35:57;;;;;;;71.53;33.50;;;4.00;99.90;;;;;;5012047;28;20033;-45
2022/01/27 04:38:26;;;;;;;64.55;27.88;;;4.00;99.90;;;;;;5011082;28;20483;-45
2022/01/27 04:48:22;;;;;;;76.70;31.55;;;4.10;99.90;;;;;;5011766;28;20436;-45
2022/01/27 04:50:50;;;;;;;75.95;32.38;;;4.10;99.90;;;;;;5012041;28;20407;-45
2022/01/27 04:53:23;;;;;;;65.55;28.48;;;4.10;99.90;;;;;;5011975;28;20060;-45
2022/01/27 04:55:48;;;;;;;77.63;32.55;;;4.00;99.90;;;;;;5011797;28;20051;-45
2022/01/27 04:58:19;;;;;;;78.57;32.13;;;4.00;99.90;;;;;;5011847;28;20026;-45
2022/01/27 05:00:45;;;;;;;76.70;31.65;;;4.00;99.90;;;;;;5011589;28;20052;-45
2022/01/27 05:03:23;;;;;;;82.10;35.35;;;4.00;99.90;;;;;;5011525;28;20018;-45
2022/01/27 05:05:48;;;;;;;80.72;35.20;;;4.10;99.90;;;;;;5011675;28;20010;-45
2022/01/27 05:08:19;;;;;;;80.32;30.95;;;4.00;99.90;;;;;;5010277;28;20113;-45
2022/01/27 05:10:54;;;;;;;78.60;34.53;;;4.00;99.90;;;;;;5011685;28;20476;-45
2022/01/27 05:13:22;;;;;;;83.03;34.40;;;3.90;99.90;;;;;;5011651;28;20026;-45
2022/01/27 05:15:48;;;;;;;77.65;32.50;;;4.00;99.90;;;;;;5011091;28;20018;-45
2022/01/27 05:18:15;;;;;;;77.43;34.13;;;4.00;99.90;;;;;;5010881;28;20059;-45
2022/01/27 05:20:41;;;;;;;80.07;36.03;;;4.00;99.90;;;;;;5010897;28;20392;-45
2022/01/27 05:23:07;;;;;;;72.55;30.73;;;4.00;99.90;;;;;;5011216;28;20032;-45
2022/01/27 05:25:33;;;;;;;74.70;32.17;;;4.00;99.90;;;;;;5011724;28;20030;-45
2022/01/27 05:27:59;;;;;;;75.35;28.88;;;4.00;99.90;;;;;;5009744;28;20069;-45
2022/01/27 05:30:25;;;;;;;80.90;36.15;;;4.10;99.90;;;;;;5010957;28;20030;-45
2022/01/27 05:32:50;;;;;;;79.13;34.00;;;4.00;99.90;;;;;;5011215;28;20511;-45
2022/01/27 05:35:16;;;;;;;73.78;32.67;;;4.00;99.90;;;;;;5011371;28;20045;-45
2022/01/27 05:37:42;;;;;;;70.00;31.85;;;4.00;99.90;;;;;;5011046;28;20026;-45
2022/01/27 05:40:08;;;;;;;71.43;29.50;;;4.00;99.90;;;;;;5010451;28;20030;-45
2022/01/27 05:42:34;;;;;;;79.78;32.03;;;4.00;99.90;;;;;;5011212;28;20383;-45
2022/01/27 05:44:59;;;;;;;85.18;36.40;;;4.00;99.90;;;;;;5011098;28;20034;-45
2022/01/27 05:47:25;;;;;;;76.03;32.47;;;4.00;99.90;;;;;;5011125;28;20022;-45
2022/01/27 05:49:51;;;;;;;81.00;34.28;;;3.90;99.90;;;;;;5011123;28;20022;-45
2022/01/27 05:52:16;;;;;;;87.10;35.88;;;3.90;99.90;;;;;;5011174;28;20097;-45
2022/01/27 05:54:42;;;;;;;84.43;34.05;;;3.90;99.90;;;;;;5011157;28;20415;-45
2022/01/27 05:57:08;;;;;;;79.78;33.72;;;3.90;99.90;;;;;;5010676;28;20026;-45
2022/01/27 05:59:34;;;;;;;76.43;28.95;;;4.00;99.90;;;;;;5010417;28;20026;-45
2022/01/27 06:02:00;;;;;;;89.28;35.78;;;4.00;99.90;;;;;;5010429;28;20037;-45
2022/01/27 06:04:25;;;;;;;88.95;36.60;;;3.90;99.90;;;;;;5010359;28;20034;-45
2022/01/27 06:06:53;;;;;;;86.70;37.42;;;3.90;99.90;;;;;;5010690;28;20076;-45
2022/01/27 06:09:18;;;;;;;81.78;34.80;;;3.90;99.90;;;;;;5010520;28;20538;-45
2022/01/27 06:11:44;;;;;;;84.43;34.75;;;3.90;99.90;;;;;;5010594;28;20030;-45
2022/01/27 06:14:10;;;;;;;87.15;38.20;;;4.10;99.90;;;;;;5009784;28;20034;-45
2022/01/27 06:16:35;;;;;;;75.40;31.42;;;4.20;99.90;;;;;;5010682;28;20454;-45
2022/01/27 06:19:03;;;;;;;74.00;36.10;;;4.20;99.90;;;;;;5011492;28;20029;-45
2022/01/27 06:21:30;;;;;;;77.00;35.13;;;4.30;99.90;;;;;;5010441;28;20050;-45
2022/01/27 06:23:56;;;;;;;71.85;32.55;;;4.30;99.90;;;;;;5010603;28;20050;-46
2022/01/27 06:26:22;;;;;;;67.70;31.17;;;4.30;99.90;;;;;;5010556;28;20553;-45
2022/01/27 06:28:48;;;;;;;76.45;34.85;;;4.40;99.90;;;;;;5010515;28;20058;-45
2022/01/27 06:31:14;;;;;;;75.88;36.85;;;4.40;99.90;;;;;;5014232;28;20018;-45
2022/01/27 06:33:39;;;;;;;70.80;31.15;;;4.40;99.90;;;;;;5015004;28;20583;-45
2022/01/27 06:36:05;;;;;;;74.47;30.80;;;4.50;99.90;;;;;;5014347;28;20577;-45
2022/01/27 06:38:31;;;;;;;72.75;32.22;;;4.50;99.90;;;;;;5014474;28;20029;-45
2022/01/27 06:40:56;;;;;;;82.47;34.65;;;4.60;99.90;;;;;;5015185;28;20029;-46
2022/01/27 06:43:22;;;;;;;63.03;27.85;;;4.60;99.90;;;;;;5014305;28;20026;-45
2022/01/27 06:45:48;;;;;;;70.28;28.95;;;4.60;99.90;;;;;;5013267;28;20164;-45
2022/01/27 06:48:14;;;;;;;73.40;32.28;;;4.70;99.90;;;;;;5013714;28;20553;-45
2022/01/27 06:50:40;;;;;;;69.35;30.95;;;4.70;99.90;;;;;;5024393;28;20069;-45
2022/01/27 06:53:05;;;;;;;78.40;32.60;;;4.80;99.90;;;;;;5017819;28;20422;-45
2022/01/27 06:55:31;;;;;;;67.78;29.33;;;4.80;99.90;;;;;;5033320;28;20060;-45
2022/01/27 06:57:57;;;;;;;74.63;30.45;;;4.90;99.90;;;;;;5033578;28;20044;-45
2022/01/27 07:00:23;;;;;;;70.00;34.42;;;4.90;99.90;;;;;;5019174;28;20038;-46
2022/01/27 07:02:48;;;;;;;75.22;31.92;;;4.90;99.90;;;;;;5042347;28;20032;-45
2022/01/27 07:05:15;;;;;;;64.53;29.98;;;4.90;99.90;;;;;;5014107;28;20037;-45
2022/01/27 07:07:42;;;;;;;77.28;33.25;;;4.90;99.90;;;;;;5015626;28;20038;-45
2022/01/27 07:10:08;;;;;;;77.05;34.20;;;4.90;99.90;;;;;;5018374;28;20601;-45
2022/01/27 07:12:34;;;;;;;75.18;32.80;;;4.90;99.90;;;;;;5025705;28;20047;-45
2022/01/27 07:15:00;;;;;;;76.25;31.50;;;4.90;99.90;;;;;;5021202;28;20538;-45
2022/01/27 07:17:26;;;;;;;69.88;31.73;;;4.90;99.90;;;;;;5016400;28;20522;-45
2022/01/27 07:19:51;;;;;;;69.55;32.13;;;4.90;99.90;;;;;;5015269;28;20307;-45
2022/01/27 07:22:17;;;;;;;68.95;31.35;;;5.00;99.90;;;;;;5029189;28;20033;-45
2022/01/27 07:24:43;;;;;;;70.05;31.27;;;5.10;99.90;;;;;;5018171;28;20018;-45
2022/01/27 07:27:09;;;;;;;72.03;30.17;;;5.00;99.90;;;;;;5020447;28;20051;-45
2022/01/27 07:29:35;;;;;;;71.13;34.03;;;5.00;99.90;;;;;;5019732;28;21198;-46
2022/01/27 07:32:01;;;;;;;70.20;31.10;;;5.00;99.90;;;;;;5019906;28;20113;-45
2022/01/27 07:34:26;;;;;;;65.88;30.30;;;5.00;99.90;;;;;;5010965;28;20450;-46
2022/01/27 07:36:56;;;;;;;72.70;32.28;;;5.00;99.90;;;;;;5015252;28;20542;-46
2022/01/27 07:39:22;;;;;;;80.75;32.72;;;4.90;99.90;;;;;;5013165;28;20092;-45
2022/01/27 07:41:48;;;;;;;60.05;24.42;;;4.90;99.90;;;;;;5012955;28;20022;-45
2022/01/27 07:44:13;;;;;;;79.15;36.20;;;4.90;99.90;;;;;;5022841;28;20591;-45
2022/01/27 07:46:39;;;;;;;71.53;30.95;;;4.90;99.90;;;;;;5015687;28;20485;-45
2022/01/27 07:49:05;;;;;;;74.70;32.08;;;5.00;99.90;;;;;;5028092;28;20033;-45
2022/01/27 07:51:30;;;;;;;80.18;35.72;;;5.00;99.90;;;;;;5025662;28;20121;-45
2022/01/27 07:53:56;;;;;;;75.68;32.17;;;5.00;99.90;;;;;;5019887;28;20034;-45
2022/01/27 07:56:22;;;;;;;74.72;32.72;;;5.00;99.90;;;;;;5018437;28;20208;-46
2022/01/27 07:58:47;;;;;;;71.75;32.47;;;5.00;99.90;;;;;;5018991;28;20029;-45
2022/01/27 08:01:13;;;;;;;71.43;32.65;;;5.10;99.90;;;;;;5018619;28;20104;-45
2022/01/27 08:03:39;;;;;;;65.57;31.27;;;5.10;99.90;;;;;;5017998;28;20068;-45
2022/01/27 08:06:07;;;;;;;74.65;35.92;;;5.20;99.90;;;;;;5019522;28;20045;-46
2022/01/27 08:08:33;;;;;;;61.95;27.40;;;5.30;99.90;;;;;;5016395;28;20117;-45
2022/01/27 08:11:00;;;;;;;68.40;34.15;;;5.40;99.90;;;;;;5011861;28;20690;-46
2022/01/27 08:13:26;;;;;;;65.63;32.35;;;5.50;99.90;;;;;;5017952;28;20660;-46
2022/01/27 08:15:52;;;;;;;66.38;29.73;;;5.50;99.90;;;;;;5018221;28;20055;-45
2022/01/27 08:18:18;;;;;;;72.25;33.05;;;5.60;99.90;;;;;;5016123;28;20032;-45
2022/01/27 08:20:46;;;;;;;67.20;32.55;;;5.70;99.90;;;;;;5018870;28;20390;-45
2022/01/27 08:23:14;;;;;;;62.22;28.77;;;5.70;99.90;;;;;;5022897;28;20028;-45
2022/01/27 08:25:40;;;;;;;61.03;26.90;;;5.80;99.90;;;;;;5019535;28;20032;-45
2022/01/27 08:28:16;;;;;;;71.53;32.13;;;5.90;99.90;;;;;;5022998;28;20775;-45
2022/01/27 08:30:46;;;;;;;66.97;31.90;;;5.80;99.90;;;;;;5017640;28;20076;-45
2022/01/27 08:33:17;;;;;;;62.75;28.23;;;5.90;99.90;;;;;;5025307;28;20079;-45
2022/01/27 08:35:43;;;;;;;62.67;26.65;;;5.90;99.90;;;;;;5020046;28;20041;-45
2022/01/27 08:38:09;;;;;;;68.43;29.80;;;6.10;99.90;;;;;;5020286;28;20022;-45
2022/01/27 08:40:35;;;;;;;68.45;30.15;;;6.20;99.90;;;;;;5019589;28;20479;-45
2022/01/27 08:43:01;;;;;;;56.22;26.75;;;6.20;99.90;;;;;;5020130;28;20033;-45
2022/01/27 08:45:27;;;;;;;59.55;29.65;;;6.30;99.90;;;;;;5024805;28;20064;-45
2022/01/27 08:47:57;;;;;;;61.00;28.15;;;6.30;99.90;;;;;;5017839;28;20040;-45
2022/01/27 08:50:24;;;;;;;41.05;18.00;;;6.50;99.90;;;;;;5023214;28;20431;-45
2022/01/27 08:52:50;;;;;;;45.80;21.27;;;6.70;99.90;;;;;;5020018;28;20034;-45
2022/01/27 08:55:17;;;;;;;56.05;24.90;;;6.70;99.90;;;;;;5024357;28;20109;-45
2022/01/27 08:57:42;;;;;;;48.10;22.15;;;6.80;99.90;;;;;;5018848;28;20064;-45
2022/01/27 09:00:11;;;;;;;48.65;21.83;;;6.80;99.90;;;;;;5020357;28;20069;-45
2022/01/27 09:02:37;;;;;;;44.65;22.90;;;6.90;99.90;;;;;;5016558;28;20164;-45
2022/01/27 09:05:04;;;;;;;49.78;23.95;;;7.00;99.90;;;;;;5023324;28;20451;-45
2022/01/27 09:07:30;;;;;;;42.22;20.48;;;7.10;99.90;;;;;;5021352;28;20032;-45
2022/01/27 09:09:55;;;;;;;53.83;24.27;;;7.00;99.90;;;;;;5020165;28;20029;-45
2022/01/27 09:12:21;;;;;;;44.58;21.58;;;7.00;99.90;;;;;;5012800;28;20029;-45
2022/01/27 09:14:47;;;;;;;43.33;21.42;;;7.20;99.90;;;;;;5019104;28;20033;-45
2022/01/27 09:17:14;;;;;;;43.40;21.52;;;7.50;99.90;;;;;;5018600;28;20033;-45
2022/01/27 09:19:42;;;;;;;46.60;20.75;;;7.80;99.90;;;;;;5018434;28;20080;-46
2022/01/27 09:22:14;;;;;;;34.47;20.00;;;7.90;99.90;;;;;;5013092;28;20076;-46
2022/01/27 09:24:51;;;;;;;33.83;17.40;;;8.00;99.90;;;;;;5019050;28;20057;-45
2022/01/27 09:27:21;;;;;;;48.22;21.40;;;7.90;99.90;;;;;;5021955;28;20053;-46
2022/01/27 09:29:47;;;;;;;48.50;21.15;;;7.70;99.90;;;;;;5012725;28;20037;-46
2022/01/27 09:32:15;;;;;;;40.45;17.58;;;7.60;99.90;;;;;;5008887;28;20145;-46
2022/01/27 09:34:41;;;;;;;44.85;21.13;;;7.40;99.90;;;;;;5014250;28;20491;-46
2022/01/27 09:37:07;;;;;;;44.42;20.73;;;7.20;99.90;;;;;;5028198;28;20021;-46
2022/01/27 09:39:36;;;;;;;43.67;13.88;;;7.20;99.90;;;;;;5016791;28;20435;-46
2022/01/27 09:42:03;;;;;;;49.92;23.67;;;7.20;99.90;;;;;;5017381;28;20769;-46
2022/01/27 09:44:32;;;;;;;58.60;23.63;;;7.20;99.90;;;;;;5010474;28;20021;-46
2022/01/27 09:47:04;;;;;;;47.10;21.88;;;7.20;99.90;;;;;;5013780;28;20037;-47
2022/01/27 09:49:36;;;;;;;51.08;25.25;;;7.10;99.90;;;;;;5014917;28;20148;-47
2022/01/27 09:52:03;;;;;;;62.05;24.48;;;7.20;99.90;;;;;;5014940;28;20104;-46
2022/01/27 09:54:28;;;;;;;59.53;26.13;;;7.20;99.90;;;;;;5008447;28;20096;-47
2022/01/27 09:56:54;;;;;;;50.90;25.92;;;7.20;99.90;;;;;;5013847;28;20030;-46
2022/01/27 09:59:21;;;;;;;56.17;25.63;;;7.20;99.90;;;;;;5013535;28;20512;-47
2022/01/27 10:01:54;;;;;;;55.90;26.60;;;7.20;99.90;;;;;;5020226;28;20510;-46
2022/01/27 10:04:20;;;;;;;52.67;24.80;;;7.10;99.90;;;;;;5013934;28;20472;-46
2022/01/27 10:06:48;;;;;;;43.17;22.35;;;7.10;99.90;;;;;;5020572;28;20079;-46
2022/01/27 10:09:18;;;;;;;59.75;26.67;;;7.10;99.90;;;;;;5015829;28;20549;-46
2022/01/27 10:11:46;;;;;;;43.47;20.77;;;7.20;99.90;;;;;;5013255;28;20052;-46
2022/01/27 10:14:26;;;;;;;57.20;26.83;;;7.10;99.90;;;;;;5015048;28;20105;-48
2022/01/27 10:16:55;;;;;;;59.17;27.63;;;7.20;99.90;;;;;;5024742;28;20076;-48
2022/01/27 10:19:22;;;;;;;57.35;28.35;;;7.10;99.90;;;;;;5021749;28;20028;-47
2022/01/27 10:21:48;;;;;;;61.17;27.60;;;7.10;99.90;;;;;;5011807;28;20117;-48
2022/01/27 10:24:27;;;;;;;54.15;27.08;;;7.10;99.90;;;;;;5012927;28;20021;-48
2022/01/27 10:32:47;;;;;;;50.88;25.42;;;7.30;99.90;;;;;;5012088;28;20022;-51
2022/01/27 10:35:15;;;;;;;46.00;21.83;;;7.40;99.90;;;;;;5013789;28;20041;-51
2022/01/27 10:37:58;;;;;;;47.50;22.65;;;7.50;99.90;;;;;;5010878;28;20435;-50
2022/01/27 10:40:28;;;;;;;52.85;23.45;;;7.60;99.90;;;;;;5013923;28;20017;-49
2022/01/27 10:43:15;;;;;;;44.08;21.40;;;7.60;99.90;;;;;;5023650;28;20497;-49
2022/01/27 10:48:52;;;;;;;32.08;16.90;;;7.70;99.90;;;;;;5014863;28;20022;-48
2022/01/27 10:51:27;;;;;;;41.35;20.70;;;7.70;99.90;;;;;;5021831;28;20065;-48
2022/01/27 10:54:04;;;;;;;47.70;20.80;;;7.70;99.90;;;;;;5019533;28;20027;-47
2022/01/27 10:56:35;;;;;;;37.67;19.27;;;7.70;99.90;;;;;;5012914;28;20612;-48
2022/01/27 10:59:04;;;;;;;35.95;17.58;;;7.80;99.90;;;;;;5017713;28;20293;-47
2022/01/27 11:01:39;;;;;;;34.03;15.65;;;7.90;99.90;;;;;;5016966;28;20105;-48
2022/01/27 11:04:07;;;;;;;34.83;16.38;;;8.00;99.90;;;;;;5022912;28;20026;-48
2022/01/27 11:06:35;;;;;;;28.75;16.17;;;8.00;99.90;;;;;;5015926;28;20022;-47
2022/01/27 11:09:13;;;;;;;28.08;15.52;;;8.20;99.90;;;;;;5016261;28;20494;-47
2022/01/27 11:11:39;;;;;;;31.58;15.65;;;8.20;99.90;;;;;;5017940;28;20045;-48
2022/01/27 11:14:05;;;;;;;33.42;15.73;;;8.10;99.90;;;;;;5017317;28;20046;-48
2022/01/27 11:16:38;;;;;;;31.23;14.68;;;8.20;99.90;;;;;;5022536;28;21691;-48
2022/01/27 11:21:43;;;;;;;28.05;13.68;;;8.20;99.90;;;;;;5017705;28;20644;-48
2022/01/27 11:24:23;;;;;;;26.92;13.38;;;8.20;99.90;;;;;;5018017;28;20017;-48
2022/01/27 11:26:53;;;;;;;25.35;12.38;;;8.20;99.90;;;;;;5026333;28;20037;-48
2022/01/27 11:29:21;;;;;;;23.98;13.23;;;8.20;99.90;;;;;;5018808;28;20038;-48
2022/01/27 11:32:09;;;;;;;21.30;12.63;;;8.20;99.90;;;;;;5013617;28;20049;-50
2022/01/27 11:34:52;;;;;;;23.05;12.52;;;8.20;99.90;;;;;;5016760;28;20099;-52
2022/01/27 11:37:37;;;;;;;;;;;8.30;99.90;;;;;;5019012;28;20026;-52
2022/01/27 11:40:08;;;;;;;20.33;10.93;;;8.30;99.90;;;;;;5017491;28;20333;-51
2022/01/27 11:42:34;;;;;;;19.30;10.67;;;8.40;99.90;;;;;;5013228;28;20029;-52
2022/01/27 11:45:22;;;;;;;20.38;10.65;;;8.40;99.90;;;;;;5015396;28;20038;-51
2022/01/27 11:48:01;;;;;;;16.58;8.93;;;8.40;99.90;;;;;;5014654;28;20018;-51
2022/01/27 11:50:37;;;;;;;21.45;11.85;;;8.40;99.90;;;;;;5019267;28;20040;-50
2022/01/27 11:53:08;;;;;;;20.52;9.65;;;8.50;99.90;;;;;;5012541;28;20029;-50
2022/01/27 11:55:40;;;;;;;22.30;9.63;;;8.50;99.90;;;;;;5015103;28;20029;-48
2022/01/27 11:58:14;;;;;;;14.63;9.45;;;8.50;99.90;;;;;;5017424;28;20229;-49
2022/01/27 12:00:59;;;;;;;12.70;8.43;;;8.60;99.90;;;;;;5011467;28;20500;-50
2022/01/27 12:03:26;;;;;;;15.15;8.60;;;8.60;99.90;;;;;;5032601;28;20029;-51
2022/01/27 12:06:18;;;;;;;18.27;9.00;;;8.60;99.90;;;;;;5014514;28;20368;-51
2022/01/27 12:08:44;;;;;;;20.63;8.98;;;8.80;99.90;;;;;;5020511;28;20406;-51
2022/01/27 12:11:30;;;;;;;18.58;8.95;;;8.70;99.90;;;;;;5013539;28;20037;-52
2022/01/27 12:14:00;;;;;;;14.75;8.20;;;8.60;99.90;;;;;;5015996;28;20091;-51
2022/01/27 12:19:12;;;;;;;17.25;9.20;;;8.60;99.90;;;;;;5015339;28;20084;-49
2022/01/27 12:21:44;;;;;;;15.73;8.82;;;8.60;99.90;;;;;;5014072;28;20851;-49
2022/01/27 12:24:23;;;;;;;18.67;8.63;;;8.60;99.90;;;;;;5018784;28;20501;-48
2022/01/27 12:26:59;;;;;;;13.75;7.97;;;8.60;99.90;;;;;;5034906;28;20037;-48
2022/01/27 12:29:35;;;;;;;19.17;9.18;;;8.50;99.90;;;;;;5011946;28;20053;-48
2022/01/27 12:32:07;;;;;;;18.35;9.00;;;8.50;99.90;;;;;;5017552;28;20021;-49
2022/01/27 12:34:34;;;;;;;16.42;9.07;;;8.50;99.90;;;;;;5017879;28;20028;-51
2022/01/27 12:37:01;;;;;;;17.98;8.40;;;8.60;99.90;;;;;;5016482;28;20033;-50
2022/01/27 12:39:33;;;;;;;16.05;8.88;;;8.70;99.90;;;;;;5019775;28;20021;-51
2022/01/27 12:42:02;;;;;;;19.23;9.60;;;8.70;99.90;;;;;;5019635;28;20084;-52
2022/01/27 12:44:29;;;;;;;15.13;7.85;;;8.70;99.90;;;;;;5021130;28;20427;-49
2022/01/27 12:47:04;;;;;;;16.98;8.00;;;8.80;99.90;;;;;;5015601;28;20105;-49
2022/01/27 12:49:42;;;;;;;13.18;7.70;;;8.80;99.90;;;;;;5023794;28;20037;-49
2022/01/27 12:52:11;;;;;;;19.38;8.95;;;8.80;99.90;;;;;;5011663;28;20042;-49
2022/01/27 12:54:38;;;;;;;19.00;8.63;;;8.80;99.90;;;;;;5015948;28;20025;-51
2022/01/27 12:57:05;;;;;;;15.90;8.40;;;8.70;99.90;;;;;;5017009;28;20659;-51
2022/01/27 12:59:34;;;;;;;14.43;7.90;;;8.80;99.90;;;;;;5015784;28;20036;-51
2022/01/27 13:02:01;;;;;;;16.25;8.20;;;8.80;99.90;;;;;;5012922;28;20120;-48
2022/01/27 13:04:28;;;;;;;17.85;8.38;;;8.90;99.90;;;;;;5015738;28;20088;-50
2022/01/27 13:06:55;;;;;;;13.73;8.27;;;8.90;99.90;;;;;;5021302;28;20727;-50
2022/01/27 13:09:21;;;;;;;18.08;8.25;;;8.90;99.90;;;;;;5014538;28;20010;-49
2022/01/27 13:11:50;;;;;;;10.55;7.07;;;8.90;99.90;;;;;;5011541;28;20040;-49
2022/01/27 13:14:16;;;;;;;11.07;6.93;;;8.90;99.90;;;;;;5017421;28;20131;-48
2022/01/27 13:16:47;;;;;;;16.60;7.93;;;8.90;99.90;;;;;;5019931;28;20053;-48
2022/01/27 13:19:23;;;;;;;10.93;7.68;;;8.90;99.90;;;;;;5011377;28;20038;-48
2022/01/27 13:22:03;;;;;;;18.90;8.38;;;8.90;99.90;;;;;;5017894;28;20033;-48
2022/01/27 13:24:32;;;;;;;12.07;7.68;;;8.90;99.90;;;;;;5012522;28;20022;-47
2022/01/27 13:27:08;;;;;;;14.75;8.15;;;8.90;99.90;;;;;;5011091;28;20076;-48
2022/01/27 13:29:43;;;;;;;15.30;8.98;;;8.90;99.90;;;;;;5024890;28;20041;-48
2022/01/27 13:32:09;;;;;;;13.32;8.45;;;8.90;99.90;;;;;;5013844;28;20411;-48
2022/01/27 13:34:41;;;;;;;15.85;8.93;;;8.90;99.90;;;;;;5017810;28;20076;-48
2022/01/27 13:37:06;;;;;;;18.85;9.63;;;8.90;99.90;;;;;;5010119;28;20052;-48
2022/01/27 13:42:19;;;;;;;14.80;9.20;;;9.00;99.90;;;;;;5011905;28;20030;-47